createdAt,value
2023-03-13T00:04:33.890Z,2.35
2023-03-13T00:09:35.813Z,1.92
2023-03-13T00:14:37.721Z,2.40
2023-03-13T00:19:40.704Z,2.97
2023-03-13T00:24:42.583Z,2.63
2023-03-13T00:29:44.966Z,3.28
2023-03-13T00:34:46.840Z,2.50
2023-03-13T00:39:49.776Z,2.58
2023-03-13T00:44:51.859Z,3.10
2023-03-13T00:49:53.804Z,2.30
2023-03-13T00:54:55.717Z,1.90
2023-03-13T00:59:57.610Z,2.33
2023-03-13T01:05:00.598Z,2.40
2023-03-13T01:10:02.462Z,2.15
2023-03-13T01:15:04.733Z,1.67
2023-03-13T01:20:08.095Z,2.05
2023-03-13T01:25:11.112Z,2.67
2023-03-13T01:30:13.350Z,2.40
2023-03-13T01:35:15.579Z,1.83
2023-03-13T01:40:17.498Z,2.05
2023-03-13T01:45:50.360Z,1.80
2023-03-13T01:50:57.156Z,2.50
2023-03-13T01:56:06.810Z,1.67
2023-03-13T02:01:10.070Z,2.33
2023-03-13T02:06:12.843Z,1.70
2023-03-13T02:11:35.781Z,1.70
2023-03-13T02:16:38.851Z,2.55
2023-03-13T02:21:50.413Z,2.35
2023-03-13T02:26:52.512Z,1.65
2023-03-13T02:31:54.863Z,2.38
2023-03-13T02:37:00.238Z,1.77
2023-03-13T02:42:03.925Z,1.75
2023-03-13T02:47:10.005Z,2.22
2023-03-13T02:52:14.528Z,3.17
2023-03-13T02:57:18.398Z,2.00
2023-03-13T03:02:21.251Z,1.80
2023-03-13T03:07:23.550Z,1.85
2023-03-13T03:12:26.750Z,1.80
2023-03-13T03:17:28.761Z,1.92
2023-03-13T03:22:30.832Z,1.40
2023-03-13T03:27:32.730Z,2.13
2023-03-13T03:32:34.863Z,2.20
2023-03-13T03:37:37.604Z,1.67
2023-03-13T03:42:40.612Z,2.17
2023-03-13T03:47:42.673Z,1.75
2023-03-13T03:52:44.689Z,1.65
2023-03-13T03:57:47.084Z,1.50
2023-03-13T04:02:57.577Z,2.28
2023-03-13T04:07:59.436Z,2.05
2023-03-13T04:13:02.096Z,1.15
2023-03-13T04:18:05.323Z,2.28
2023-03-13T04:23:07.903Z,2.08
2023-03-13T04:28:09.840Z,2.28
2023-03-13T04:33:17.667Z,1.63
2023-03-13T04:38:25.588Z,2.17
2023-03-13T04:43:37.700Z,1.35
2023-03-13T04:48:58.022Z,1.65
2023-03-13T04:54:23.023Z,2.33
2023-03-13T04:59:35.257Z,1.73
2023-03-13T05:04:55.605Z,1.63
2023-03-13T05:10:16.171Z,2.13
2023-03-13T05:15:41.343Z,1.63
2023-03-13T05:21:21.768Z,1.52
2023-03-13T05:26:42.166Z,2.20
2023-03-13T05:32:00.982Z,1.80
2023-03-13T05:37:20.725Z,2.03
2023-03-13T05:42:40.960Z,1.45
2023-03-13T05:48:21.471Z,1.38
2023-03-13T05:53:46.692Z,2.05
2023-03-13T05:59:11.257Z,1.67
2023-03-13T06:04:32.426Z,2.33
2023-03-13T06:09:34.591Z,2.05
2023-03-13T06:14:38.108Z,2.03
2023-03-13T06:19:51.957Z,1.77
2023-03-13T06:24:53.818Z,1.55
2023-03-13T06:29:55.791Z,1.50
2023-03-13T06:34:57.638Z,2.38
2023-03-13T06:39:59.713Z,1.63
2023-03-13T06:45:03.657Z,2.03
2023-03-13T06:50:05.963Z,1.38
2023-03-13T06:55:08.598Z,2.47
2023-03-13T07:00:15.448Z,2.88
2023-03-13T07:05:17.994Z,1.75
2023-03-13T07:10:20.043Z,1.95
2023-03-13T07:15:35.088Z,2.05
2023-03-13T07:20:37.107Z,2.17
2023-03-13T07:25:38.950Z,1.48
2023-03-13T07:30:40.868Z,1.92
2023-03-13T07:35:49.462Z,1.42
2023-03-13T07:40:54.063Z,1.30
2023-03-13T07:45:58.917Z,1.70
2023-03-13T07:51:01.322Z,1.90
2023-03-13T07:56:10.101Z,1.98
2023-03-13T08:01:19.807Z,1.70
2023-03-13T08:06:26.708Z,2.30
2023-03-13T08:11:29.826Z,1.80
2023-03-13T08:16:34.706Z,2.33
2023-03-13T08:21:38.357Z,1.85
2023-03-13T08:26:42.618Z,1.70
2023-03-13T08:31:49.206Z,1.30
2023-03-13T08:36:53.029Z,1.30
2023-03-13T08:41:54.905Z,1.60
2023-03-13T08:46:57.107Z,1.33
2023-03-13T08:51:59.014Z,1.50
2023-03-13T08:57:00.857Z,1.50
2023-03-13T09:02:03.418Z,1.10
2023-03-13T09:07:05.411Z,1.10
2023-03-13T09:12:07.956Z,1.35
2023-03-13T09:17:10.850Z,1.35
2023-03-13T09:22:12.813Z,1.30
2023-03-13T09:27:14.775Z,1.00
2023-03-13T09:32:17.132Z,1.17
2023-03-13T09:37:19.067Z,1.30
2023-03-13T09:42:24.414Z,1.02
2023-03-13T09:47:57.804Z,1.50
2023-03-13T09:53:08.054Z,0.95
2023-03-13T09:58:28.572Z,1.00
2023-03-13T10:03:52.135Z,0.80
2023-03-13T10:08:55.066Z,0.60
2023-03-13T10:14:05.968Z,0.88
2023-03-13T10:19:28.033Z,0.70
2023-03-13T10:24:38.356Z,0.55
2023-03-13T10:29:40.521Z,0.68
2023-03-13T10:34:59.842Z,1.02
2023-03-13T10:40:25.099Z,0.80
2023-03-13T10:45:31.069Z,0.60
2023-03-13T10:50:35.014Z,0.70
2023-03-13T10:55:44.643Z,0.57
2023-03-13T11:00:46.641Z,1.35
2023-03-13T11:06:00.132Z,0.85
2023-03-13T11:11:17.360Z,0.50
2023-03-13T11:16:22.790Z,0.50
2023-03-13T11:21:53.464Z,0.70
2023-03-13T11:27:29.405Z,0.50
2023-03-13T11:32:56.383Z,0.60
2023-03-13T11:38:00.583Z,0.50
2023-03-13T11:43:25.969Z,1.10
2023-03-13T11:48:37.176Z,0.85
2023-03-13T11:54:05.312Z,0.60
2023-03-13T11:59:45.485Z,0.70
2023-03-13T12:05:13.988Z,0.88
2023-03-13T12:10:21.942Z,0.63
2023-03-13T12:15:30.016Z,0.80
2023-03-13T12:20:31.817Z,0.63
2023-03-13T12:26:00.360Z,0.57
2023-03-13T12:31:02.398Z,0.80
2023-03-13T12:36:43.185Z,0.65
2023-03-13T12:42:25.949Z,0.70
2023-03-13T12:47:48.981Z,0.50
2023-03-13T12:53:02.352Z,0.80
2023-03-13T12:58:16.344Z,0.52
2023-03-13T13:03:17.992Z,0.60
2023-03-13T13:08:26.526Z,0.73
2023-03-13T13:13:32.080Z,0.93
2023-03-13T13:18:34.996Z,0.75
2023-03-13T13:23:46.566Z,0.70
2023-03-13T13:28:48.521Z,0.80
2023-03-13T13:33:50.505Z,0.70
2023-03-13T13:38:52.842Z,0.60
2023-03-13T13:44:26.976Z,0.43
2023-03-13T13:49:34.639Z,0.82
2023-03-13T13:54:48.316Z,0.40
2023-03-13T14:00:07.325Z,0.65
2023-03-13T14:05:27.206Z,0.70
2023-03-13T14:10:47.133Z,0.60
2023-03-13T14:15:53.404Z,0.77
2023-03-13T14:20:58.413Z,0.80
2023-03-13T14:26:13.508Z,0.73
2023-03-13T14:31:51.682Z,1.00
2023-03-13T14:37:04.509Z,0.82
2023-03-13T14:42:18.338Z,0.60
2023-03-13T14:47:30.778Z,1.03
2023-03-13T14:52:34.145Z,0.60
2023-03-13T14:57:36.648Z,0.60
2023-03-13T15:02:38.914Z,0.60
2023-03-13T15:08:08.874Z,0.52
2023-03-13T15:13:33.542Z,0.80
2023-03-13T15:18:35.414Z,0.80
2023-03-13T15:23:37.368Z,0.82
2023-03-13T15:28:39.232Z,0.85
2023-03-13T15:33:42.183Z,0.60
2023-03-13T15:38:43.964Z,0.70
2023-03-13T15:43:47.414Z,0.90
2023-03-13T15:48:51.443Z,0.82
2023-03-13T15:53:54.419Z,0.65
2023-03-13T15:58:56.623Z,1.00
2023-03-13T16:04:00.327Z,0.70
2023-03-13T16:09:05.882Z,0.70
2023-03-13T16:14:07.771Z,0.70
2023-03-13T16:19:09.814Z,0.80
2023-03-13T16:24:11.692Z,0.77
2023-03-13T16:29:15.333Z,0.90
2023-03-13T16:34:18.400Z,0.70
2023-03-13T16:39:20.283Z,0.80
2023-03-13T16:44:22.204Z,0.70
2023-03-13T16:49:24.057Z,0.90
2023-03-13T16:54:25.905Z,0.60
2023-03-13T16:59:28.776Z,0.70
2023-03-13T17:04:30.673Z,1.23
2023-03-13T17:09:32.534Z,0.80
2023-03-13T17:14:34.433Z,1.00
2023-03-13T17:19:36.203Z,1.25
2023-03-13T17:24:38.057Z,1.85
2023-03-13T17:29:40.346Z,1.30
2023-03-13T17:34:42.563Z,1.83
2023-03-13T17:39:45.584Z,1.23
2023-03-13T17:44:47.464Z,1.35
2023-03-13T17:49:49.666Z,1.20
2023-03-13T17:54:51.602Z,1.50
2023-03-13T17:59:53.482Z,1.38
2023-03-13T18:04:56.257Z,1.52
2023-03-13T18:09:58.153Z,0.88
2023-03-13T18:14:59.988Z,1.35
2023-03-13T18:20:01.967Z,2.53
2023-03-13T18:25:08.245Z,1.75
2023-03-13T18:30:22.635Z,1.30
2023-03-13T18:35:24.601Z,1.35
2023-03-13T18:40:29.354Z,1.35
2023-03-13T18:45:31.549Z,1.27
2023-03-13T18:50:33.914Z,1.17
2023-03-13T18:55:37.970Z,1.27
2023-03-13T19:00:39.917Z,1.17
2023-03-13T19:05:41.791Z,1.30
2023-03-13T19:10:43.675Z,1.00
2023-03-13T19:15:45.616Z,1.60
2023-03-13T19:20:47.753Z,1.80
2023-03-13T19:25:49.651Z,0.90
2023-03-13T19:30:51.497Z,1.48
2023-03-13T19:35:53.491Z,1.35
2023-03-13T19:40:55.350Z,1.17
2023-03-13T19:45:57.330Z,1.00
2023-03-13T19:50:59.315Z,1.20
2023-03-13T19:56:01.282Z,1.23
2023-03-13T20:01:16.443Z,1.20
2023-03-13T20:06:39.789Z,0.70
2023-03-13T20:11:41.783Z,0.68
2023-03-13T20:16:45.561Z,0.50
2023-03-13T20:21:52.296Z,0.80
2023-03-13T20:26:55.798Z,0.30
2023-03-13T20:32:01.460Z,0.68
2023-03-13T20:37:03.949Z,1.00
2023-03-13T20:42:08.450Z,0.50
2023-03-13T20:47:10.353Z,0.63
2023-03-13T20:52:12.184Z,0.60
2023-03-13T20:57:17.190Z,0.70
2023-03-13T21:02:19.076Z,0.40
2023-03-13T21:07:21.130Z,0.55
2023-03-13T21:12:23.041Z,0.50
2023-03-13T21:17:26.296Z,0.50
2023-03-13T21:22:31.303Z,0.65
2023-03-13T21:27:33.889Z,0.70
2023-03-13T21:32:39.892Z,0.47
2023-03-13T21:37:44.110Z,0.57
2023-03-13T21:42:45.989Z,0.60
2023-03-13T21:47:49.176Z,0.80
2023-03-13T21:52:51.313Z,0.50
2023-03-13T21:57:53.232Z,1.20
2023-03-13T22:02:55.146Z,0.70
2023-03-13T22:07:58.084Z,0.40
2023-03-13T22:12:59.856Z,0.50
2023-03-13T22:18:01.671Z,0.50
2023-03-13T22:23:03.574Z,0.55
2023-03-13T22:28:05.536Z,0.60
2023-03-13T22:33:08.056Z,0.77
2023-03-13T22:38:10.389Z,0.50
2023-03-13T22:43:12.393Z,0.50
2023-03-13T22:48:14.344Z,0.50
2023-03-13T22:53:16.333Z,0.60
2023-03-13T22:58:18.301Z,0.50
2023-03-13T23:03:20.274Z,0.75
2023-03-13T23:08:22.993Z,0.68
2023-03-13T23:13:25.967Z,0.73
2023-03-13T23:18:28.648Z,0.90
2023-03-13T23:23:31.923Z,0.60
2023-03-13T23:28:37.488Z,0.63
2023-03-13T23:33:42.514Z,0.60
2023-03-13T23:38:52.047Z,0.82
2023-03-13T23:43:53.991Z,0.52
2023-03-13T23:48:58.245Z,1.10
2023-03-13T23:54:00.833Z,1.23
2023-03-13T23:59:02.899Z,1.20
